createdAt,value
2022-10-17T00:00:18.505Z,11.77
2022-10-17T00:01:18.488Z,11.77
2022-10-17T00:02:18.498Z,11.73
2022-10-17T00:03:18.468Z,11.68
2022-10-17T00:04:18.428Z,11.62
2022-10-17T00:05:18.371Z,11.70
2022-10-17T00:06:18.385Z,11.75
2022-10-17T00:07:18.512Z,11.77
2022-10-17T00:08:18.312Z,11.72
2022-10-17T00:09:18.340Z,11.81
2022-10-17T00:10:18.362Z,11.80
2022-10-17T00:11:18.352Z,11.81
2022-10-17T00:12:18.375Z,11.81
2022-10-17T00:13:18.310Z,11.80
2022-10-17T00:14:18.231Z,11.78
2022-10-17T00:15:18.267Z,11.83
2022-10-17T00:16:18.861Z,11.81
2022-10-17T00:17:18.323Z,11.75
2022-10-17T00:18:18.251Z,11.80
2022-10-17T00:19:18.243Z,11.81
2022-10-17T00:20:18.349Z,11.77
2022-10-17T00:21:18.332Z,11.86
2022-10-17T00:22:18.213Z,11.80
2022-10-17T00:23:18.197Z,11.75
2022-10-17T00:24:18.407Z,11.77
2022-10-17T00:25:18.171Z,11.84
2022-10-17T00:26:18.168Z,11.91
2022-10-17T00:27:18.116Z,12.03
2022-10-17T00:28:19.029Z,12.03
2022-10-17T00:29:19.003Z,12.06
2022-10-17T00:30:18.114Z,12.12
2022-10-17T00:31:18.110Z,12.09
2022-10-17T00:32:18.150Z,12.07
2022-10-17T00:33:18.171Z,12.10
2022-10-17T00:34:18.067Z,12.13
2022-10-17T00:35:18.167Z,12.09
2022-10-17T00:36:18.114Z,12.18
2022-10-17T00:37:18.090Z,12.15
2022-10-17T00:38:18.060Z,12.12
2022-10-17T00:39:18.028Z,12.15
2022-10-17T00:40:18.040Z,12.13
2022-10-17T00:41:18.092Z,12.13
2022-10-17T00:42:18.036Z,12.15
2022-10-17T00:43:18.053Z,12.03
2022-10-17T00:44:18.031Z,12.17
2022-10-17T00:45:17.940Z,12.06
2022-10-17T00:46:18.205Z,12.04
2022-10-17T00:47:17.964Z,11.94
2022-10-17T00:48:22.495Z,12.06
2022-10-17T00:49:19.923Z,12.10
2022-10-17T00:50:17.964Z,12.00
2022-10-17T00:51:17.920Z,12.02
2022-10-17T00:52:17.968Z,11.94
2022-10-17T00:53:17.897Z,11.94
2022-10-17T00:54:17.875Z,11.91
2022-10-17T00:55:17.878Z,11.78
2022-10-17T00:56:17.866Z,11.70
2022-10-17T00:57:17.895Z,11.83
2022-10-17T00:58:18.504Z,11.80
2022-10-17T00:59:17.878Z,11.77
2022-10-17T01:00:17.808Z,11.75
2022-10-17T01:01:17.889Z,11.83
2022-10-17T01:02:17.836Z,11.90
2022-10-17T01:03:17.835Z,11.86
2022-10-17T01:04:17.840Z,11.80
2022-10-17T01:05:17.823Z,11.90
2022-10-17T01:06:17.777Z,11.86
2022-10-17T01:07:17.749Z,11.86
2022-10-17T01:08:17.790Z,11.88
2022-10-17T01:09:17.862Z,11.90
2022-10-17T01:10:17.818Z,11.97
2022-10-17T01:11:17.744Z,11.90
2022-10-17T01:12:17.672Z,11.94
2022-10-17T01:13:17.734Z,11.88
2022-10-17T01:14:17.638Z,11.84
2022-10-17T01:15:17.669Z,11.84
2022-10-17T01:16:17.881Z,11.68
2022-10-17T01:17:17.635Z,11.52
2022-10-17T01:18:17.655Z,11.45
2022-10-17T01:19:17.652Z,11.36
2022-10-17T01:20:18.649Z,11.40
2022-10-17T01:21:17.632Z,11.33
2022-10-17T01:22:17.630Z,11.32
2022-10-17T01:23:17.694Z,11.25
2022-10-17T01:24:17.580Z,11.29
2022-10-17T01:25:17.579Z,11.33
2022-10-17T01:26:17.624Z,11.37
2022-10-17T01:27:17.591Z,11.35
2022-10-17T01:28:17.612Z,11.37
2022-10-17T01:29:17.540Z,11.27
2022-10-17T01:30:17.508Z,11.35
2022-10-17T01:31:17.515Z,11.37
2022-10-17T01:32:17.459Z,11.33
2022-10-17T01:33:17.541Z,11.44
2022-10-17T01:34:17.494Z,11.40
2022-10-17T01:35:17.534Z,11.54
2022-10-17T01:36:17.510Z,11.52
2022-10-17T01:37:17.423Z,11.47
2022-10-17T01:38:18.403Z,11.40
2022-10-17T01:39:17.417Z,11.54
2022-10-17T01:40:17.529Z,11.47
2022-10-17T01:41:17.435Z,11.59
2022-10-17T01:42:18.016Z,11.57
2022-10-17T01:43:17.404Z,11.51
2022-10-17T01:44:17.411Z,11.54
2022-10-17T01:45:17.373Z,11.43
2022-10-17T01:46:17.389Z,11.48
2022-10-17T01:47:17.401Z,11.40
2022-10-17T01:48:17.303Z,11.36
2022-10-17T01:49:17.381Z,11.40
2022-10-17T01:50:17.424Z,11.47
2022-10-17T01:51:17.349Z,11.43
2022-10-17T01:52:17.514Z,11.48
2022-10-17T01:53:17.339Z,11.51
2022-10-17T01:54:17.262Z,11.54
2022-10-17T01:55:17.252Z,11.50
2022-10-17T01:56:17.245Z,11.44
2022-10-17T01:57:17.251Z,11.48
2022-10-17T01:58:17.337Z,11.62
2022-10-17T01:59:17.259Z,11.54
2022-10-17T02:00:17.315Z,11.44
2022-10-17T02:01:17.284Z,11.43
2022-10-17T02:02:17.290Z,11.35
2022-10-17T02:03:17.239Z,11.29
2022-10-17T02:04:17.217Z,11.36
2022-10-17T02:05:17.207Z,11.25
2022-10-17T02:06:17.150Z,11.25
2022-10-17T02:07:17.169Z,11.36
2022-10-17T02:08:17.176Z,11.30
2022-10-17T02:09:17.117Z,11.40
2022-10-17T02:10:17.090Z,11.43
2022-10-17T02:11:17.159Z,11.33
2022-10-17T02:12:18.010Z,11.40
2022-10-17T02:13:17.187Z,11.40
2022-10-17T02:14:17.160Z,11.37
2022-10-17T02:15:17.059Z,11.40
2022-10-17T02:16:17.121Z,11.26
2022-10-17T02:17:17.050Z,11.30
2022-10-17T02:18:17.099Z,11.33
2022-10-17T02:19:17.020Z,11.19
2022-10-17T02:20:17.025Z,11.32
2022-10-17T02:21:17.958Z,11.30
2022-10-17T02:22:17.007Z,11.33
2022-10-17T02:24:16.937Z,11.33
2022-10-17T02:25:16.993Z,11.32
2022-10-17T02:26:16.945Z,11.41
2022-10-17T02:27:16.940Z,11.36
2022-10-17T02:28:17.052Z,11.35
2022-10-17T02:29:16.953Z,11.35
2022-10-17T02:30:16.925Z,11.36
2022-10-17T02:31:16.916Z,11.35
2022-10-17T03:17:03.914Z,10.87
2022-10-17T03:18:05.245Z,10.86
2022-10-17T03:19:05.654Z,10.93
2022-10-17T03:20:05.001Z,10.84
2022-10-17T03:21:05.658Z,10.75
2022-10-17T03:22:04.987Z,10.56
2022-10-17T03:23:05.014Z,10.56
2022-10-17T03:24:05.030Z,10.56
2022-10-17T03:25:05.640Z,10.42
2022-10-17T03:26:04.974Z,10.46
2022-10-17T03:27:04.934Z,10.46
2022-10-17T03:28:04.930Z,10.48
2022-10-17T03:29:04.983Z,10.54
2022-10-17T03:30:04.965Z,10.46
2022-10-17T03:31:04.914Z,10.48
2022-10-17T03:32:04.921Z,10.49
2022-10-17T03:33:04.895Z,10.48
2022-10-17T03:34:04.883Z,10.56
2022-10-17T03:35:04.881Z,10.57
2022-10-17T03:36:04.835Z,10.57
2022-10-17T03:37:05.138Z,10.53
2022-10-17T03:38:04.858Z,10.56
2022-10-17T03:39:04.903Z,10.51
2022-10-17T03:40:04.783Z,10.51
2022-10-17T03:41:04.801Z,10.53
2022-10-17T03:42:04.830Z,10.56
2022-10-17T03:43:04.750Z,10.64
2022-10-17T03:44:04.750Z,10.59
2022-10-17T03:45:04.778Z,10.72
2022-10-17T03:46:04.862Z,10.71
2022-10-17T03:47:04.715Z,10.76
2022-10-17T03:48:04.759Z,10.79
2022-10-17T03:49:04.816Z,10.76
2022-10-17T03:50:04.749Z,10.81
2022-10-17T03:51:04.727Z,10.82
2022-10-17T03:52:05.268Z,10.81
2022-10-17T03:53:04.695Z,10.92
2022-10-17T03:54:04.697Z,10.93
2022-10-17T03:55:04.690Z,10.96
2022-10-17T03:56:04.672Z,10.96
2022-10-17T03:57:04.726Z,10.82
2022-10-17T03:58:05.613Z,10.84
2022-10-17T03:59:04.631Z,11.02
2022-10-17T04:00:04.688Z,10.84
2022-10-17T04:01:04.719Z,10.99
2022-10-17T04:02:04.640Z,10.99
2022-10-17T04:03:04.720Z,10.97
2022-10-17T04:04:04.530Z,10.93
2022-10-17T04:05:04.650Z,11.02
2022-10-17T04:06:04.540Z,11.04
2022-10-17T04:07:04.538Z,11.02
2022-10-17T04:08:04.963Z,11.04
2022-10-17T04:09:04.499Z,10.93
2022-10-17T04:10:04.531Z,10.84
2022-10-17T04:11:04.512Z,10.82
2022-10-17T04:12:05.120Z,10.84
2022-10-17T04:13:04.524Z,10.67
2022-10-17T04:14:04.481Z,10.81
2022-10-17T04:15:04.481Z,10.61
2022-10-17T04:16:04.517Z,10.59
2022-10-17T04:17:04.426Z,10.56
2022-10-17T04:19:05.006Z,10.37
2022-10-17T04:20:04.395Z,10.54
2022-10-17T04:21:04.344Z,10.51
2022-10-17T04:22:04.377Z,10.44
2022-10-17T04:23:04.390Z,10.54
2022-10-17T04:24:04.390Z,10.38
2022-10-17T04:25:04.397Z,10.42
2022-10-17T04:26:04.336Z,10.37
2022-10-17T04:27:04.356Z,10.48
2022-10-17T04:28:04.353Z,10.42
2022-10-17T04:29:04.375Z,10.38
2022-10-17T04:30:04.289Z,10.56
2022-10-17T04:31:04.284Z,10.38
2022-10-17T04:32:04.247Z,10.38
2022-10-17T04:33:04.364Z,10.35
2022-10-17T04:34:04.296Z,10.41
2022-10-17T04:35:04.300Z,10.37
2022-10-17T04:36:04.250Z,10.28
2022-10-17T04:37:04.347Z,10.31
2022-10-17T04:38:04.228Z,10.23
2022-10-17T04:39:04.350Z,10.22
2022-10-17T04:40:04.159Z,10.38
2022-10-17T04:41:04.220Z,10.31
2022-10-17T04:42:04.239Z,10.28
2022-10-17T04:43:04.155Z,10.19
2022-10-17T04:44:05.182Z,10.22
2022-10-17T04:45:04.123Z,10.33
2022-10-17T04:46:04.126Z,10.30
2022-10-17T04:47:04.124Z,10.34
2022-10-17T04:48:04.216Z,10.44
2022-10-17T04:49:04.240Z,10.44
2022-10-17T04:50:04.104Z,10.54
2022-10-17T04:51:04.843Z,10.51
2022-10-17T04:52:04.141Z,10.59
2022-10-17T04:53:04.129Z,10.59
2022-10-17T04:54:04.174Z,10.60
2022-10-17T04:55:04.092Z,10.68
2022-10-17T04:56:04.191Z,10.63
2022-10-17T04:57:04.052Z,10.61
2022-10-17T04:58:04.063Z,10.63
2022-10-17T04:59:04.057Z,10.61
2022-10-17T05:00:04.045Z,10.67
2022-10-17T05:01:04.051Z,10.60
2022-10-17T05:02:04.048Z,10.61
2022-10-17T05:03:03.968Z,10.68
2022-10-17T05:04:03.974Z,10.64
2022-10-17T05:05:03.917Z,10.69
2022-10-17T05:06:03.957Z,10.64
2022-10-17T05:07:04.031Z,10.60
2022-10-17T05:08:04.002Z,10.51
2022-10-17T05:09:03.984Z,10.54
2022-10-17T05:10:04.051Z,10.40
2022-10-17T05:11:04.053Z,10.30
2022-10-17T05:12:06.651Z,10.30
2022-10-17T05:13:04.935Z,10.28
2022-10-17T05:14:04.095Z,10.19
2022-10-17T05:15:03.812Z,10.23
2022-10-17T05:16:03.896Z,10.05
2022-10-17T05:17:04.010Z,10.01
2022-10-17T05:18:03.908Z,10.01
2022-10-17T05:19:03.924Z,10.07
2022-10-17T05:20:03.862Z,9.91
2022-10-17T05:21:03.996Z,10.02
2022-10-17T05:22:03.935Z,10.04
2022-10-17T05:23:03.776Z,10.04
2022-10-17T05:24:03.792Z,10.01
2022-10-17T05:25:03.784Z,10.07
2022-10-17T05:26:03.829Z,10.16
2022-10-17T05:27:03.767Z,10.19
2022-10-17T05:28:03.871Z,10.25
2022-10-17T05:29:03.737Z,10.26
2022-10-17T05:30:03.736Z,10.31
2022-10-17T05:31:03.797Z,10.28
2022-10-17T05:32:03.883Z,10.35
2022-10-17T05:33:03.719Z,10.38
2022-10-17T05:34:03.671Z,10.23
2022-10-17T05:35:03.630Z,10.30
2022-10-17T05:36:03.798Z,10.13
2022-10-17T05:37:03.717Z,10.16
2022-10-17T05:38:03.648Z,10.12
2022-10-17T05:39:04.661Z,10.12
2022-10-17T05:40:03.593Z,10.05
2022-10-17T05:41:03.683Z,10.15
2022-10-17T05:42:03.684Z,10.02
2022-10-17T05:43:03.675Z,10.10
2022-10-17T05:44:05.571Z,9.97
2022-10-17T05:45:03.562Z,10.04
2022-10-17T05:46:03.582Z,10.04
2022-10-17T05:47:03.554Z,10.04
2022-10-17T05:48:03.645Z,10.01
2022-10-17T05:49:14.709Z,10.09
2022-10-17T05:50:05.571Z,10.01
2022-10-17T05:51:03.582Z,10.05
2022-10-17T05:52:03.501Z,10.12
2022-10-17T05:53:04.088Z,10.15
2022-10-17T05:54:03.456Z,10.15
2022-10-17T05:55:03.596Z,10.30
2022-10-17T05:56:03.578Z,10.37
2022-10-17T05:57:03.544Z,10.35
2022-10-17T05:58:03.517Z,10.49
2022-10-17T05:59:03.475Z,10.41
2022-10-17T06:00:03.498Z,10.46
2022-10-17T06:01:03.571Z,10.54
2022-10-17T06:02:03.577Z,10.57
2022-10-17T06:03:03.442Z,10.67
2022-10-17T06:04:03.532Z,10.67
2022-10-17T06:05:03.357Z,10.72
2022-10-17T06:06:03.351Z,10.71
2022-10-17T06:07:03.349Z,10.76
2022-10-17T06:08:03.342Z,10.76
2022-10-17T06:09:03.306Z,10.82
2022-10-17T06:10:03.361Z,10.86
2022-10-17T06:11:06.117Z,10.81
2022-10-17T06:12:05.416Z,10.79
2022-10-17T06:13:03.256Z,10.84
2022-10-17T06:14:03.839Z,10.92
2022-10-17T06:15:03.284Z,10.79
2022-10-17T06:16:03.330Z,10.78
2022-10-17T06:17:03.396Z,10.86
2022-10-17T06:18:03.243Z,10.82
2022-10-17T06:19:03.396Z,10.81
2022-10-17T06:20:03.195Z,10.81
2022-10-17T06:26:19.596Z,10.92
2022-10-17T06:27:20.488Z,10.86
2022-10-17T06:28:20.108Z,10.89
2022-10-17T06:29:20.021Z,10.82
2022-10-17T06:30:19.997Z,10.84
2022-10-17T06:31:20.072Z,10.93
2022-10-17T06:32:20.042Z,10.94
2022-10-17T06:33:19.961Z,10.90
2022-10-17T06:34:19.923Z,10.92
2022-10-17T06:35:20.225Z,11.05
2022-10-17T06:36:20.832Z,11.02
2022-10-17T06:37:20.070Z,11.02
2022-10-17T06:38:19.962Z,11.02
2022-10-17T06:39:19.946Z,11.14
2022-10-17T06:40:19.932Z,11.18
2022-10-17T06:41:20.001Z,11.11
2022-10-17T06:42:20.107Z,11.19
2022-10-17T06:43:20.707Z,11.22
2022-10-17T06:44:20.551Z,11.26
2022-10-17T06:45:19.908Z,11.18
2022-10-17T06:46:20.092Z,11.27
2022-10-17T06:47:20.247Z,11.27
2022-10-17T06:48:19.829Z,11.36
2022-10-17T06:49:19.832Z,11.33
2022-10-17T06:50:19.824Z,11.17
2022-10-17T06:51:19.804Z,11.36
2022-10-17T06:52:19.852Z,11.43
2022-10-17T06:53:19.741Z,11.33
2022-10-17T06:54:19.700Z,11.30
2022-10-17T06:55:22.769Z,11.33
2022-10-17T06:56:19.757Z,11.35
2022-10-17T06:57:19.791Z,11.37
2022-10-17T06:58:19.724Z,11.36
2022-10-17T06:59:19.703Z,11.50
2022-10-17T07:00:19.746Z,11.45
2022-10-17T07:01:19.687Z,11.54
2022-10-17T07:02:19.742Z,11.60
2022-10-17T07:03:21.003Z,11.65
2022-10-17T07:04:19.651Z,11.65
2022-10-17T07:05:19.650Z,11.52
2022-10-17T07:06:19.656Z,11.69
2022-10-17T07:07:19.658Z,11.73
2022-10-17T07:08:19.759Z,11.83
2022-10-17T07:09:19.603Z,11.88
2022-10-17T07:10:19.625Z,11.88
2022-10-17T07:11:19.719Z,11.94
2022-10-17T07:12:19.781Z,11.90
2022-10-17T07:13:20.478Z,12.03
2022-10-17T07:14:19.685Z,12.00
2022-10-17T07:15:19.615Z,11.91
2022-10-17T07:16:19.620Z,11.95
2022-10-17T07:17:19.612Z,12.00
2022-10-17T07:18:19.551Z,12.17
2022-10-17T07:19:19.560Z,12.15
2022-10-17T07:20:19.570Z,12.24
2022-10-17T07:21:19.482Z,12.42
2022-10-17T07:22:19.578Z,12.49
2022-10-17T07:23:19.583Z,12.60
2022-10-17T07:24:19.529Z,12.72
2022-10-17T07:25:19.527Z,12.78
2022-10-17T07:26:19.660Z,12.90
2022-10-17T07:27:19.560Z,13.00
2022-10-17T07:28:19.609Z,13.08
2022-10-17T07:29:19.653Z,13.15
2022-10-17T07:30:19.663Z,13.23
2022-10-17T07:31:19.886Z,13.22
2022-10-17T07:32:19.500Z,13.28
2022-10-17T07:33:19.623Z,13.35
2022-10-17T07:34:19.518Z,13.33
2022-10-17T07:35:19.483Z,13.46
2022-10-17T07:36:19.375Z,13.49
2022-10-17T07:37:19.480Z,13.59
2022-10-17T07:38:19.630Z,13.57
2022-10-17T07:40:48.382Z,13.68
2022-10-17T07:41:59.197Z,13.71
2022-10-17T07:42:57.441Z,13.75
2022-10-17T07:45:39.588Z,13.89
2022-10-17T07:46:39.739Z,13.96
2022-10-17T07:47:39.671Z,13.92
2022-10-17T07:48:39.775Z,14.10
2022-10-17T07:49:40.020Z,14.11
2022-10-17T07:50:39.561Z,14.17
2022-10-17T07:51:39.599Z,14.23
2022-10-17T07:52:39.429Z,14.23
2022-10-17T07:53:40.883Z,14.35
2022-10-17T07:54:39.532Z,14.26
2022-10-17T07:55:40.805Z,14.40
2022-10-17T07:56:41.889Z,14.47
2022-10-17T07:57:40.851Z,14.44
2022-10-17T07:58:40.726Z,14.53
2022-10-17T07:59:40.897Z,14.59
2022-10-17T08:00:41.744Z,14.69
2022-10-17T08:01:40.678Z,14.66
2022-10-17T08:02:40.675Z,14.79
2022-10-17T08:03:40.688Z,14.79
2022-10-17T08:04:40.722Z,14.89
2022-10-17T08:05:41.341Z,14.97
2022-10-17T08:06:40.719Z,14.91
2022-10-17T08:07:40.808Z,14.94
2022-10-17T08:08:40.702Z,15.03
2022-10-17T08:09:40.578Z,15.02
2022-10-17T08:10:40.560Z,15.18
2022-10-17T08:11:40.687Z,15.17
2022-10-17T08:12:40.626Z,15.10
2022-10-17T08:13:40.713Z,15.19
2022-10-17T08:14:41.205Z,15.22
2022-10-17T08:15:40.846Z,15.22
2022-10-17T08:16:40.645Z,15.24
2022-10-17T08:18:18.925Z,15.28
2022-10-17T08:19:13.203Z,15.27
2022-10-17T08:20:13.150Z,15.27
2022-10-17T08:21:08.111Z,15.47
2022-10-17T08:21:41.604Z,15.35
2022-10-17T08:22:41.975Z,15.37
2022-10-17T08:23:40.638Z,15.47
2022-10-17T08:24:40.934Z,15.49
2022-10-17T08:26:13.139Z,15.49
2022-10-17T08:26:43.516Z,15.51
2022-10-17T08:27:40.930Z,15.54
2022-10-17T08:29:16.362Z,15.62
2022-10-17T08:29:41.138Z,15.58
2022-10-17T08:30:42.784Z,15.62
2022-10-17T08:31:46.468Z,15.62
2022-10-17T08:32:41.038Z,15.76
2022-10-17T08:34:14.585Z,15.73
2022-10-17T08:34:46.390Z,15.55
2022-10-17T08:35:42.158Z,15.64
2022-10-17T08:36:40.756Z,15.72
2022-10-17T08:37:40.575Z,15.79
2022-10-17T08:38:43.493Z,15.94
2022-10-17T08:39:43.421Z,16.00
2022-10-17T08:40:40.708Z,15.95
2022-10-17T08:41:40.937Z,16.09
2022-10-17T08:42:42.513Z,16.01
2022-10-17T08:43:43.387Z,16.04
2022-10-17T08:44:41.730Z,16.20
2022-10-17T08:45:44.754Z,16.31
2022-10-17T08:46:43.837Z,16.39
2022-10-17T08:47:43.196Z,16.41
2022-10-17T08:48:44.135Z,16.58
2022-10-17T08:49:48.032Z,16.61
2022-10-17T08:50:40.965Z,16.61
2022-10-17T08:51:41.149Z,16.71
2022-10-17T08:52:45.041Z,16.81
2022-10-17T08:53:47.486Z,16.99
2022-10-17T08:54:44.927Z,17.06
2022-10-17T08:55:51.470Z,17.12
2022-10-17T08:56:48.489Z,17.22
2022-10-17T08:57:43.992Z,17.29
2022-10-17T08:58:53.707Z,17.42
2022-10-17T09:01:13.104Z,17.48
2022-10-17T09:02:41.450Z,17.57
2022-10-17T09:06:17.002Z,18.18
2022-10-17T09:07:18.360Z,18.20
2022-10-17T09:08:22.732Z,18.40
2022-10-17T09:09:36.458Z,18.59
2022-10-17T09:10:56.984Z,18.56
2022-10-17T09:11:42.905Z,18.73
2022-10-17T09:12:48.691Z,18.75
2022-10-17T09:14:56.649Z,18.93
2022-10-17T09:15:50.152Z,18.95
2022-10-17T09:16:39.105Z,18.92
2022-10-17T09:18:17.565Z,18.95
2022-10-17T09:19:04.019Z,19.08
2022-10-17T09:19:29.855Z,19.12
2022-10-17T09:21:08.429Z,19.30
2022-10-17T09:21:46.630Z,19.36
2022-10-17T09:23:25.891Z,19.54
2022-10-17T09:24:29.679Z,19.63
2022-10-17T09:25:32.509Z,19.67
2022-10-17T09:26:45.589Z,19.73
2022-10-17T09:27:46.621Z,19.89
2022-10-17T09:28:43.239Z,19.88
2022-10-17T09:29:30.848Z,19.89
2022-10-17T09:30:47.226Z,20.00
2022-10-17T09:33:22.978Z,19.99
2022-10-17T09:33:53.386Z,20.06
2022-10-17T09:34:27.484Z,20.09
2022-10-17T09:35:30.193Z,19.99
2022-10-17T09:36:35.807Z,20.00
2022-10-17T09:38:47.711Z,20.06
2022-10-17T09:38:55.335Z,20.24
2022-10-17T09:39:53.716Z,20.39
2022-10-17T09:41:32.034Z,20.36
2022-10-17T09:42:12.808Z,20.48
2022-10-17T09:43:04.726Z,20.40
2022-10-17T09:43:55.808Z,20.60
2022-10-17T09:45:01.533Z,20.72
2022-10-17T09:46:21.466Z,20.74
2022-10-17T09:47:09.561Z,20.81
2022-10-17T09:48:35.167Z,20.93
2022-10-17T09:50:05.831Z,20.96
2022-10-17T09:50:11.839Z,21.11
2022-10-17T09:51:25.840Z,21.12
2022-10-17T09:52:45.147Z,21.09
2022-10-17T09:53:42.926Z,21.09
2022-10-17T09:54:26.853Z,21.22
2022-10-17T09:56:17.125Z,21.18
2022-10-17T09:58:37.145Z,21.39
2022-10-17T10:01:04.073Z,21.42
2022-10-17T10:02:12.073Z,21.48
2022-10-17T10:03:33.285Z,21.48
2022-10-17T10:04:10.653Z,21.54
2022-10-17T10:05:39.467Z,21.57
2022-10-17T10:06:05.541Z,21.46
2022-10-17T10:07:38.642Z,21.40
2022-10-17T10:10:09.388Z,21.64
2022-10-17T10:11:17.031Z,21.75
2022-10-17T10:12:17.809Z,21.83
2022-10-17T10:16:08.395Z,21.95
2022-10-17T10:18:35.360Z,22.02
2022-10-17T10:21:02.070Z,21.98
2022-10-17T10:23:31.036Z,22.02
2022-10-17T10:24:39.453Z,22.08
2022-10-17T10:25:38.770Z,22.08
2022-10-17T10:26:32.623Z,22.23
2022-10-17T10:29:06.905Z,22.22
2022-10-17T10:31:36.220Z,22.25
2022-10-17T10:34:15.595Z,22.25
2022-10-17T10:35:15.693Z,22.15
2022-10-17T10:36:23.616Z,22.36
2022-10-17T10:37:17.023Z,22.36
2022-10-17T10:38:25.313Z,22.39
2022-10-17T10:39:15.553Z,22.44
2022-10-17T10:40:15.880Z,22.51
2022-10-17T10:43:04.905Z,22.69
2022-10-17T10:44:23.253Z,22.83
2022-10-17T10:45:00.751Z,22.93
2022-10-17T10:46:09.497Z,22.90
2022-10-17T10:47:08.476Z,22.80
2022-10-17T10:48:08.878Z,22.80
2022-10-17T10:49:07.487Z,22.57
2022-10-17T10:52:54.609Z,22.68
2022-10-17T10:54:03.365Z,22.72
2022-10-17T10:55:02.330Z,22.81
2022-10-17T10:57:21.630Z,22.88
2022-10-17T10:58:30.413Z,22.93
2022-10-17T10:59:29.237Z,23.00
2022-10-17T11:00:23.110Z,23.23
2022-10-17T11:01:55.257Z,23.21
2022-10-17T11:02:23.008Z,23.41
2022-10-17T11:03:23.086Z,23.39
2022-10-17T11:04:22.919Z,23.44
2022-10-17T11:05:22.988Z,23.63
2022-10-17T11:06:55.276Z,23.56
2022-10-17T11:07:55.230Z,23.41
2022-10-17T11:08:23.028Z,23.03
2022-10-17T11:09:22.767Z,22.87
2022-10-17T11:13:51.841Z,22.94
2022-10-17T11:16:40.421Z,23.65
2022-10-17T11:17:48.100Z,23.91
2022-10-17T11:19:50.996Z,24.42
2022-10-17T11:20:50.863Z,24.58
2022-10-17T11:21:52.578Z,24.60
2022-10-17T11:23:26.233Z,25.04
2022-10-17T11:23:52.065Z,25.03
2022-10-17T11:25:25.852Z,25.08
2022-10-17T11:25:52.584Z,25.07
2022-10-17T11:27:18.628Z,24.99
2022-10-17T11:27:52.156Z,25.16
2022-10-17T11:28:52.183Z,25.06
2022-10-17T11:29:52.095Z,24.78
2022-10-17T11:34:17.216Z,25.14
2022-10-17T11:35:51.063Z,25.54
2022-10-17T11:36:53.632Z,25.66
2022-10-17T11:37:19.044Z,25.59
2022-10-17T11:38:18.757Z,24.86
2022-10-17T11:40:05.174Z,24.91
2022-10-17T11:40:20.595Z,25.62
2022-10-17T11:41:51.921Z,26.36
2022-10-17T11:42:53.205Z,26.44
2022-10-17T11:45:31.407Z,26.37
2022-10-17T11:46:39.131Z,26.33
2022-10-17T11:47:31.396Z,26.47
2022-10-17T11:49:07.549Z,26.47
2022-10-17T11:49:35.526Z,26.89
2022-10-17T11:52:56.101Z,26.81
2022-10-17T11:57:55.017Z,27.05
2022-10-17T12:03:47.593Z,26.90
2022-10-17T12:06:59.570Z,26.89
2022-10-17T12:07:59.586Z,26.60
2022-10-17T12:09:07.278Z,26.45
2022-10-17T12:11:26.533Z,25.77
2022-10-17T12:12:26.884Z,25.36
2022-10-17T12:13:26.593Z,24.95
2022-10-17T12:14:27.723Z,25.03
2022-10-17T12:18:39.009Z,24.88
2022-10-17T12:20:13.080Z,24.70
2022-10-17T12:24:47.636Z,25.22
2022-10-17T12:26:24.064Z,24.98
2022-10-17T12:26:49.105Z,24.84
2022-10-17T12:30:32.758Z,23.77
2022-10-17T12:31:40.578Z,24.23
2022-10-17T12:33:08.681Z,24.55
2022-10-17T12:33:34.385Z,24.63
2022-10-17T12:35:06.554Z,24.76
2022-10-17T12:36:00.544Z,25.01
2022-10-17T12:37:06.561Z,25.41
2022-10-17T12:38:07.992Z,25.44
2022-10-17T12:39:06.388Z,25.50
2022-10-17T12:40:06.785Z,25.83
2022-10-17T12:40:34.345Z,26.09
2022-10-17T12:48:26.271Z,26.51
2022-10-17T12:56:25.919Z,26.00
2022-10-17T13:04:19.969Z,24.18
2022-10-17T13:05:27.704Z,24.13
2022-10-17T13:12:56.577Z,25.75
2022-10-17T13:22:55.314Z,25.95
2022-10-17T13:24:30.332Z,25.84
2022-10-17T13:24:56.448Z,25.93
2022-10-17T13:26:30.170Z,25.50
2022-10-17T13:26:56.363Z,25.25
2022-10-17T13:28:23.892Z,25.03
2022-10-17T13:28:56.844Z,25.11
2022-10-17T13:32:12.368Z,25.66
2022-10-17T13:38:23.706Z,25.80
2022-10-17T13:39:38.450Z,25.54
2022-10-17T13:46:38.359Z,25.75
2022-10-17T13:47:44.807Z,25.55
2022-10-17T13:49:18.836Z,25.03
2022-10-17T13:50:00.462Z,24.84
2022-10-17T13:50:45.560Z,24.84
2022-10-17T13:51:48.883Z,24.42
2022-10-17T13:52:51.267Z,24.16
2022-10-17T13:53:54.230Z,24.10
2022-10-17T13:54:57.996Z,23.93
2022-10-17T13:55:36.564Z,23.96
2022-10-17T13:56:53.406Z,23.80
2022-10-17T13:57:46.638Z,23.88
2022-10-17T13:58:38.531Z,23.73
2022-10-17T13:59:47.089Z,23.77
2022-10-17T14:00:37.333Z,23.68
2022-10-17T14:01:36.167Z,23.58
2022-10-17T14:02:35.027Z,23.55
2022-10-17T14:03:48.139Z,23.41
2022-10-17T14:05:15.132Z,23.41
2022-10-17T14:05:58.348Z,23.36
2022-10-17T14:07:51.693Z,23.34
2022-10-17T14:08:12.442Z,23.40
2022-10-17T14:09:26.832Z,23.48
2022-10-17T14:10:21.456Z,23.44
2022-10-17T14:11:05.574Z,23.47
2022-10-17T14:13:24.298Z,23.46
2022-10-17T14:13:39.834Z,23.32
2022-10-17T14:14:37.681Z,23.28
2022-10-17T14:15:33.283Z,23.23
2022-10-17T14:16:46.568Z,23.20
2022-10-17T14:17:55.360Z,23.06
2022-10-17T14:18:59.541Z,23.05
2022-10-17T14:20:47.817Z,23.03
2022-10-17T14:21:51.395Z,23.06
2022-10-17T14:22:28.868Z,22.98
2022-10-17T14:23:52.812Z,23.03
2022-10-17T14:24:46.175Z,22.94
2022-10-17T14:25:42.642Z,22.98
2022-10-17T14:29:32.672Z,22.60
2022-10-17T14:30:55.024Z,22.63
2022-10-17T14:31:34.769Z,22.60
2022-10-17T14:35:18.193Z,22.57
2022-10-17T14:36:17.016Z,22.66
2022-10-17T14:40:29.572Z,22.66
2022-10-17T14:41:42.577Z,22.66
2022-10-17T14:52:52.169Z,22.41
2022-10-17T14:54:43.032Z,22.51
2022-10-17T15:01:00.277Z,22.23
2022-10-17T15:11:25.023Z,21.99
2022-10-17T15:14:22.978Z,22.02
2022-10-17T15:16:27.195Z,21.96
2022-10-17T15:16:58.862Z,21.85
2022-10-17T15:18:07.155Z,21.85
2022-10-17T15:19:10.030Z,21.75
2022-10-17T15:20:16.129Z,21.72
